Content
SEND FEEDBACK

Daily
Averages
Monthly
Summary
United States of America

MOUNT WILSON - NORTHWEST, CALIFORNIA


Home > North America > United States > California
Elevation: 4250 feet     Latitude: 34 15N     Longitude: 118 06W

WEATHER
 
SELECT A DAY
Number of Records: 124,375;   Date Range: 1/1/95 - 8/12/14
 
SHARE

PRINT THIS DATA

[ ← Previous Day ]
WEATHER ALMANAC - FEBRUARY 5, 2013
[ Next Day → ]
[ °C ]   °F
Weather ElementAverageHighLow
Temperature48.8 °F60.8 °F (2:30 pm)42.8 °F (6:15 pm)
Dewpoint20.3 °F33.8 °F (12:30 pm)3.2 °F (5:30 am)
Humidity33.2 %49 % (11:30 pm)18 % (5:30 am)
Wind Speed5.2 mph10.4 mph (3:15 pm)
Wind Gust16.1 mph (5:45 pm)
Weather ElementAverage
Wind DirectionSSW (204.1 °)

Weather ElementTotal
Precipitation---
Heating Degree Days13.2 (Base 65)
Growing Degree Days1.8 (Base 50)
Averaged from 38 records on February 5, 2013
WEATHER CONDITIONS BREAKOUT
WIND DIRECTION BREAKOUT
WEATHER BY HOUR - FEBRUARY 5, 2013
[ °C ]   °F
Local TimeTemperatureDewpointHumidityBarometerVisibilityWind DirectionWind SpeedGust SpeedPrecipitationEventsConditions
1:00 AM44.6 °F12.2 °F27 %North (10°)2.3 mph2.3 mph
1:30 AM44.6 °F17.6 °F34 %Calm (320°)1.2 mph
2:00 AM44.6 °F12.2 °F27 %NNE (15°)3.5 mph3.5 mph
2:30 AM44.6 °F10.4 °F25 %North
3:00 AM44.6 °F12.2 °F27 %North (350°)3.5 mph4.6 mph
3:30 AM46.4 °F8.6 °F22 %NNW (345°)1.2 mph2.3 mph
4:00 AM46.4 °F10.4 °F23 %North
4:30 AM44.6 °F6.8 °F21 %North (360°)3.5 mph5.8 mph
5:00 AM44.6 °F6.8 °F21 %NNE (15°)4.6 mph5.8 mph
5:30 AM44.6 °F3.2 °F18 %West (270°)1.2 mph2.3 mph
6:00 AM46.4 °F10.4 °F23 %WSW (255°)1.2 mph1.2 mph
6:30 AM44.6 °F8.6 °F23 %Calm (115°)1.2 mph
7:00 AM46.4 °F8.6 °F22 %SSW (210°)1.2 mph2.3 mph
7:30 AM44.6 °F17.6 °F34 %East (100°)1.2 mph3.5 mph
8:00 AM51.8 °F23.0 °F33 %West (270°)1.2 mph3.5 mph
8:30 AM51.8 °F24.8 °F35 %South (185°)4.6 mph5.8 mph
9:15 AM53.6 °F24.8 °F33 %SW (230°)6.9 mph9.2 mph
10:00 AM53.6 °F23.0 °F30 %WSW (245°)8.1 mph12.7 mph
10:30 AM55.4 °F26.6 °F33 %WSW (245°)8.1 mph11.5 mph
11:00 AM57.2 °F32.0 °F38 %WSW (240°)6.9 mph10.4 mph
11:30 AM59.0 °F32.0 °F36 %SW (235°)5.8 mph9.2 mph
12:00 PM57.2 °F30.2 °F36 %WSW (240°)6.9 mph10.4 mph
12:30 PM59.0 °F33.8 °F39 %SW (235°)4.6 mph9.2 mph
1:00 PM59.0 °F33.8 °F39 %SW (235°)5.8 mph8.1 mph
1:45 PM59.0 °F30.2 °F34 %SW (230°)8.1 mph10.4 mph
2:30 PM60.8 °F33.8 °F36 %SW (235°)6.9 mph10.4 mph
3:15 PM55.4 °F32.0 °F41 %SW (235°)10.4 mph15.0 mph
4:00 PM48.2 °F23.0 °F37 %WSW (245°)9.2 mph11.5 mph
4:30 PM48.2 °F23.0 °F37 %WSW (240°)8.1 mph11.5 mph
5:45 PM44.6 °F21.2 °F39 %West (260°)10.4 mph16.1 mph
6:15 PM42.8 °F21.2 °F42 %WSW (250°)9.2 mph15.0 mph
6:45 PM44.6 °F21.2 °F39 %WSW (250°)10.4 mph10.4 mph
8:00 PM44.6 °F23.0 °F43 %SW (235°)8.1 mph11.5 mph
8:30 PM42.8 °F19.4 °F39 %WSW (255°)8.1 mph9.2 mph
9:15 PM44.6 °F21.2 °F39 %North
10:15 PM44.6 °F23.0 °F43 %North
11:00 PM42.8 °F23.0 °F46 %NNW (340°)2.3 mph3.5 mph
11:30 PM42.8 °F24.8 °F49 %WSW (255°)2.3 mph3.5 mph
Hourly data recorded from KMWS, located miles away from Mount Wilson - Northwest, California







STORIES FROM OUR PARTNERS